createdAt,value
2018-09-06T00:01:17.106Z,14.57
2018-09-06T00:03:46.284Z,14.47
2018-09-06T00:06:16.291Z,14.36
2018-09-06T00:08:45.342Z,14.32
2018-09-06T00:11:14.442Z,14.30
2018-09-06T00:13:43.503Z,14.28
2018-09-06T00:16:12.543Z,14.20
2018-09-06T00:18:42.473Z,14.15
2018-09-06T00:21:11.536Z,14.10
2018-09-06T00:23:40.556Z,14.05
2018-09-06T00:26:09.597Z,14.01
2018-09-06T00:28:38.690Z,13.99
2018-09-06T00:31:07.767Z,14.01
2018-09-06T00:33:36.986Z,13.99
2018-09-06T00:36:06.126Z,13.91
2018-09-06T00:38:35.426Z,13.83
2018-09-06T00:41:04.466Z,13.75
2018-09-06T00:43:33.497Z,13.68
2018-09-06T00:46:03.385Z,13.62
2018-09-06T00:48:32.539Z,13.61
2018-09-06T00:51:01.758Z,13.61
2018-09-06T00:53:30.832Z,13.62
2018-09-06T00:55:59.964Z,13.57
2018-09-06T00:58:28.955Z,13.48
2018-09-06T01:00:58.010Z,13.44
2018-09-06T01:03:27.060Z,13.44
2018-09-06T01:05:56.116Z,13.39
2018-09-06T01:08:25.253Z,13.34
2018-09-06T01:10:54.372Z,13.32
2018-09-06T01:13:23.445Z,13.32
2018-09-06T01:15:52.521Z,13.29
2018-09-06T01:18:21.720Z,13.29
2018-09-06T01:20:51.481Z,13.25
2018-09-06T01:23:20.503Z,13.13
2018-09-06T01:25:50.285Z,13.07
2018-09-06T01:28:20.799Z,13.04
2018-09-06T01:30:50.409Z,13.00
2018-09-06T01:33:19.511Z,12.95
2018-09-06T01:35:54.473Z,12.84
2018-09-06T01:38:25.430Z,12.72
2018-09-06T01:40:55.202Z,12.67
2018-09-06T01:43:24.327Z,12.68
2018-09-06T01:45:53.318Z,12.72
2018-09-06T01:48:22.380Z,12.70
2018-09-06T01:50:51.448Z,12.71
2018-09-06T01:53:20.520Z,12.79
2018-09-06T01:55:49.666Z,12.81
2018-09-06T01:58:18.791Z,12.80
2018-09-06T02:00:47.967Z,12.81
2018-09-06T02:03:16.993Z,12.80
2018-09-06T02:05:45.999Z,12.78
2018-09-06T02:08:15.090Z,12.70
2018-09-06T02:10:44.112Z,12.62
2018-09-06T02:13:13.135Z,12.58
2018-09-06T02:15:42.179Z,12.51
2018-09-06T02:18:11.190Z,12.41
2018-09-06T02:20:40.912Z,12.38
2018-09-06T02:23:09.957Z,12.35
2018-09-06T02:25:39.100Z,12.36
2018-09-06T02:28:08.175Z,12.39
2018-09-06T02:30:37.149Z,12.40
2018-09-06T02:33:06.322Z,12.43
2018-09-06T02:35:35.477Z,12.45
2018-09-06T02:38:04.541Z,12.44
2018-09-06T02:40:40.833Z,12.40
2018-09-06T02:43:13.880Z,12.44
2018-09-06T02:45:44.195Z,12.52
2018-09-06T02:48:13.261Z,12.63
2018-09-06T02:50:47.334Z,12.70
2018-09-06T02:53:16.967Z,12.81
2018-09-06T02:55:46.806Z,12.90
2018-09-06T02:58:15.823Z,12.98
2018-09-06T03:00:44.936Z,13.01
2018-09-06T03:03:14.016Z,13.04
2018-09-06T03:05:43.060Z,13.05
2018-09-06T03:08:12.132Z,13.07
2018-09-06T03:10:43.224Z,13.14
2018-09-06T03:13:12.225Z,13.18
2018-09-06T03:15:41.366Z,13.18
2018-09-06T03:18:10.541Z,13.22
2018-09-06T03:20:39.641Z,13.27
2018-09-06T03:23:08.815Z,13.30
2018-09-06T03:25:37.911Z,13.36
2018-09-06T03:28:07.688Z,13.40
2018-09-06T03:30:36.704Z,13.41
2018-09-06T03:33:05.813Z,13.43
2018-09-06T03:35:34.889Z,13.43
2018-09-06T03:38:04.557Z,13.37
2018-09-06T03:40:33.545Z,13.38
2018-09-06T03:43:02.578Z,13.45
2018-09-06T03:45:32.351Z,13.55
2018-09-06T03:48:01.395Z,13.65
2018-09-06T03:50:30.494Z,13.76
2018-09-06T03:52:59.598Z,13.83
2018-09-06T03:55:28.664Z,13.79
2018-09-06T03:57:57.885Z,13.74
2018-09-06T04:00:26.876Z,13.76
2018-09-06T04:02:56.047Z,13.81
2018-09-06T04:05:25.013Z,13.83
2018-09-06T04:07:54.037Z,13.86
2018-09-06T04:10:23.054Z,13.88
2018-09-06T04:12:52.101Z,13.91
2018-09-06T04:15:21.742Z,13.93
2018-09-06T04:17:50.826Z,13.95
2018-09-06T04:20:19.947Z,13.94
2018-09-06T04:22:51.070Z,13.89
2018-09-06T04:25:20.177Z,13.83
2018-09-06T04:27:49.753Z,13.80
2018-09-06T04:30:18.853Z,13.79
2018-09-06T04:32:47.872Z,13.78
2018-09-06T04:35:17.075Z,13.84
2018-09-06T04:37:46.128Z,13.95
2018-09-06T04:40:15.285Z,14.04
2018-09-06T04:42:44.305Z,14.06
2018-09-06T04:45:13.338Z,14.06
2018-09-06T04:47:42.472Z,14.02
2018-09-06T04:50:11.564Z,13.99
2018-09-06T04:52:41.637Z,14.00
2018-09-06T04:55:10.788Z,13.96
2018-09-06T04:57:39.813Z,13.92
2018-09-06T05:00:08.988Z,13.89
2018-09-06T05:02:38.141Z,13.84
2018-09-06T05:05:07.210Z,13.76
2018-09-06T05:07:36.213Z,13.77
2018-09-06T05:10:05.510Z,13.79
2018-09-06T05:12:34.523Z,13.81
2018-09-06T05:15:03.679Z,13.81
2018-09-06T05:17:32.712Z,13.70
2018-09-06T05:20:01.805Z,13.67
2018-09-06T05:22:30.885Z,13.70
2018-09-06T05:25:00.030Z,13.76
2018-09-06T05:27:29.196Z,13.75
2018-09-06T05:29:58.948Z,13.79
2018-09-06T05:32:28.033Z,13.79
2018-09-06T05:34:57.074Z,13.76
2018-09-06T05:37:26.727Z,13.80
2018-09-06T05:39:56.248Z,13.86
2018-09-06T05:42:25.261Z,13.88
2018-09-06T05:44:54.267Z,13.93
2018-09-06T05:47:23.314Z,13.91
2018-09-06T05:49:52.376Z,13.89
2018-09-06T05:52:21.809Z,13.94
2018-09-06T05:54:50.869Z,14.02
2018-09-06T05:57:19.888Z,14.08
2018-09-06T05:59:49.294Z,14.06
2018-09-06T06:02:18.410Z,14.08
2018-09-06T06:04:47.417Z,14.11
2018-09-06T06:07:16.512Z,14.17
2018-09-06T06:09:45.539Z,14.22
2018-09-06T06:12:14.581Z,14.19
2018-09-06T06:14:43.610Z,14.19
2018-09-06T06:17:12.676Z,14.22
2018-09-06T06:19:41.702Z,14.26
2018-09-06T06:22:10.778Z,14.26
2018-09-06T06:24:39.850Z,14.25
2018-09-06T06:27:08.951Z,14.27
2018-09-06T06:29:38.039Z,14.32
2018-09-06T06:32:07.155Z,14.45
2018-09-06T06:34:36.285Z,14.62
2018-09-06T06:37:06.091Z,14.78
2018-09-06T06:39:35.388Z,15.17
2018-09-06T06:42:04.553Z,15.66
2018-09-06T06:44:33.563Z,15.98
2018-09-06T06:47:02.840Z,16.19
2018-09-06T06:49:31.889Z,16.25
2018-09-06T06:52:00.977Z,16.17
2018-09-06T06:54:30.061Z,16.07
2018-09-06T06:56:59.128Z,15.95
2018-09-06T06:59:28.166Z,15.86
2018-09-06T07:01:57.548Z,15.77
2018-09-06T07:04:27.213Z,15.70
2018-09-06T07:06:56.424Z,15.62
2018-09-06T07:09:25.927Z,15.58
2018-09-06T07:11:55.053Z,15.53
2018-09-06T07:14:24.051Z,15.47
2018-09-06T07:16:53.603Z,15.42
2018-09-06T07:19:22.892Z,15.33
2018-09-06T07:21:52.759Z,15.28
2018-09-06T07:24:21.854Z,15.24
2018-09-06T07:26:51.250Z,15.22
2018-09-06T07:29:20.900Z,15.19
2018-09-06T07:31:50.590Z,15.17
2018-09-06T07:34:21.047Z,15.16
2018-09-06T07:36:50.036Z,15.21
2018-09-06T07:39:19.202Z,15.27
2018-09-06T07:41:48.460Z,15.38
2018-09-06T07:44:17.691Z,15.58
2018-09-06T07:46:46.803Z,15.76
2018-09-06T07:49:15.949Z,15.88
2018-09-06T07:51:45.243Z,15.97
2018-09-06T07:54:14.345Z,16.04
2018-09-06T07:56:44.416Z,16.07
2018-09-06T07:59:13.630Z,16.10
2018-09-06T08:01:42.800Z,16.14
2018-09-06T08:04:11.917Z,16.15
2018-09-06T08:06:41.222Z,16.13
2018-09-06T08:09:13.245Z,16.13
2018-09-06T08:11:42.627Z,16.15
2018-09-06T08:14:11.820Z,16.17
2018-09-06T08:16:41.192Z,16.22
2018-09-06T08:19:10.419Z,16.21
2018-09-06T08:21:39.594Z,16.30
2018-09-06T08:24:08.746Z,16.46
2018-09-06T08:26:37.842Z,16.65
2018-09-06T08:29:06.972Z,16.84
2018-09-06T08:31:36.273Z,16.99
2018-09-06T08:34:05.380Z,17.10
2018-09-06T08:36:34.546Z,17.15
2018-09-06T08:39:03.872Z,17.19
2018-09-06T08:41:32.993Z,17.20
2018-09-06T08:44:18.775Z,17.22
2018-09-06T08:46:47.803Z,17.32
2018-09-06T08:49:20.043Z,17.46
2018-09-06T08:51:49.216Z,17.62
2018-09-06T08:54:18.233Z,17.77
2018-09-06T08:56:47.358Z,17.86
2018-09-06T08:59:17.438Z,17.95
2018-09-06T09:01:47.255Z,17.98
2018-09-06T09:04:16.604Z,17.99
2018-09-06T09:06:46.074Z,17.97
2018-09-06T09:09:16.448Z,17.94
2018-09-06T09:11:46.270Z,17.86
2018-09-06T09:14:15.637Z,17.77
2018-09-06T09:16:45.738Z,17.77
2018-09-06T09:19:15.804Z,17.76
2018-09-06T09:21:45.716Z,17.70
2018-09-06T09:24:14.832Z,17.69
2018-09-06T09:26:44.384Z,17.66
2018-09-06T09:29:13.522Z,17.71
2018-09-06T09:31:42.955Z,17.78
2018-09-06T09:34:13.397Z,17.83
2018-09-06T09:36:42.525Z,17.82
2018-09-06T09:39:13.554Z,17.83
2018-09-06T09:41:42.834Z,17.85
2018-09-06T09:44:13.929Z,17.84
2018-09-06T09:49:11.567Z,17.80
2018-09-06T09:51:41.611Z,17.76
2018-09-06T09:54:19.931Z,17.75
2018-09-06T09:56:49.392Z,17.74
2018-09-06T09:59:19.254Z,17.72
2018-09-06T10:01:53.432Z,17.63
2018-09-06T10:04:44.651Z,17.54
2018-09-06T10:07:19.369Z,17.44
2018-09-06T10:09:55.267Z,17.41
2018-09-06T10:12:26.343Z,17.38
2018-09-06T10:14:56.255Z,17.35
2018-09-06T10:17:25.456Z,17.37
2018-09-06T10:19:55.215Z,17.35
2018-09-06T10:22:24.354Z,17.32
2018-09-06T10:24:54.891Z,17.26
2018-09-06T10:27:24.135Z,17.19
2018-09-06T10:29:53.763Z,17.12
2018-09-06T10:32:22.996Z,17.09
2018-09-06T10:34:52.318Z,17.09
2018-09-06T10:37:21.813Z,17.12
2018-09-06T10:39:51.725Z,17.17
2018-09-06T10:42:20.976Z,17.30
2018-09-06T10:44:52.621Z,17.46
2018-09-06T10:47:22.012Z,17.57
2018-09-06T10:49:52.144Z,17.60
2018-09-06T10:52:21.911Z,17.58
2018-09-06T10:57:34.430Z,17.54
2018-09-06T11:00:03.585Z,17.56
2018-09-06T11:02:32.989Z,17.56
2018-09-06T11:05:07.374Z,17.53
2018-09-06T11:10:11.764Z,17.48
2018-09-06T11:12:40.909Z,17.47
2018-09-06T11:15:10.122Z,17.46
2018-09-06T11:17:40.185Z,17.41
2018-09-06T11:20:13.808Z,17.40
2018-09-06T11:22:43.036Z,17.35
2018-09-06T11:25:12.658Z,17.33
2018-09-06T11:27:41.689Z,17.36
2018-09-06T11:30:13.411Z,17.44
2018-09-06T11:32:43.231Z,17.52
2018-09-06T11:35:12.302Z,17.61
2018-09-06T11:37:41.487Z,17.65
2018-09-06T11:40:11.499Z,17.72
2018-09-06T11:42:40.646Z,17.81
2018-09-06T11:45:11.154Z,17.89
2018-09-06T11:47:40.932Z,17.97
2018-09-06T11:53:04.630Z,17.94
2018-09-06T11:55:34.515Z,17.94
2018-09-06T11:58:03.590Z,17.92
2018-09-06T12:00:34.371Z,17.91
2018-09-06T12:03:03.719Z,17.93
2018-09-06T12:05:34.594Z,18.00
2018-09-06T12:08:04.570Z,18.04
2018-09-06T12:10:34.341Z,18.02
2018-09-06T12:13:03.679Z,18.01
2018-09-06T12:15:32.846Z,18.06
2018-09-06T12:18:02.001Z,18.16
2018-09-06T12:20:35.901Z,18.24
2018-09-06T12:23:06.104Z,18.25
2018-09-06T12:25:35.540Z,18.27
2018-09-06T12:28:05.818Z,18.24
2018-09-06T12:30:36.954Z,18.19
2018-09-06T12:33:06.397Z,18.15
2018-09-06T12:35:37.403Z,18.14
2018-09-06T12:38:08.060Z,18.20
2018-09-06T12:40:41.136Z,18.28
2018-09-06T12:43:10.262Z,18.33
2018-09-06T12:45:56.492Z,18.35
2018-09-06T12:48:26.508Z,18.35
2018-09-06T12:50:56.996Z,18.29
2018-09-06T12:53:26.756Z,18.21
2018-09-06T12:55:55.905Z,18.14
2018-09-06T12:58:25.085Z,18.12
2018-09-06T13:00:54.826Z,18.17
2018-09-06T13:03:24.447Z,18.25
2018-09-06T13:05:54.677Z,18.31
2018-09-06T13:08:24.062Z,18.33
2018-09-06T13:10:53.195Z,18.35
2018-09-06T13:13:22.457Z,18.36
2018-09-06T13:15:51.588Z,18.39
2018-09-06T13:18:21.019Z,18.40
2018-09-06T13:20:50.100Z,18.37
2018-09-06T13:23:19.223Z,18.37
2018-09-06T13:25:49.304Z,18.34
2018-09-06T13:28:18.532Z,18.32
2018-09-06T13:30:47.641Z,18.26
2018-09-06T13:33:16.732Z,18.21
2018-09-06T13:35:46.033Z,18.17
2018-09-06T13:38:15.157Z,18.14
2018-09-06T13:40:44.412Z,18.07
2018-09-06T13:43:16.506Z,18.03
2018-09-06T13:45:45.811Z,17.99
2018-09-06T13:48:15.197Z,17.97
2018-09-06T13:50:45.710Z,17.95
2018-09-06T13:53:17.041Z,17.94
2018-09-06T13:55:46.210Z,17.91
2018-09-06T13:58:15.825Z,17.89
2018-09-06T14:00:45.045Z,17.87
2018-09-06T14:03:18.581Z,17.83
2018-09-06T14:05:48.020Z,17.80
2018-09-06T14:08:27.017Z,17.75
2018-09-06T14:10:56.273Z,17.75
2018-09-06T14:13:25.305Z,17.80
2018-09-06T14:15:56.700Z,17.85
2018-09-06T14:18:25.964Z,17.88
2018-09-06T14:20:55.316Z,17.90
2018-09-06T14:23:24.423Z,17.95
2018-09-06T14:25:55.197Z,18.02
2018-09-06T14:28:24.362Z,18.09
2018-09-06T14:30:53.549Z,18.16
2018-09-06T14:33:22.600Z,18.19
2018-09-06T14:35:52.928Z,18.24
2018-09-06T14:38:22.267Z,18.30
2018-09-06T14:40:51.453Z,18.38
2018-09-06T14:43:20.600Z,18.43
2018-09-06T14:45:49.626Z,18.46
2018-09-06T14:48:18.683Z,18.47
2018-09-06T14:50:47.987Z,18.44
2018-09-06T14:53:17.047Z,18.36
2018-09-06T14:55:46.141Z,18.29
2018-09-06T14:58:16.481Z,18.24
2018-09-06T15:00:46.341Z,18.21
2018-09-06T15:03:15.501Z,18.18
2018-09-06T15:05:44.834Z,18.16
2018-09-06T15:08:14.054Z,18.13
2018-09-06T15:10:43.149Z,18.09
2018-09-06T15:13:12.234Z,18.06
2018-09-06T15:15:49.390Z,18.02
2018-09-06T15:18:20.804Z,18.02
2018-09-06T15:20:49.949Z,18.02
2018-09-06T15:23:22.810Z,18.01
2018-09-06T15:25:53.754Z,17.98
2018-09-06T15:28:28.659Z,17.95
2018-09-06T15:30:57.998Z,17.91
2018-09-06T15:33:27.217Z,17.91
2018-09-06T15:35:56.344Z,17.89
2018-09-06T15:38:25.536Z,17.88
2018-09-06T15:40:54.950Z,17.87
2018-09-06T15:43:24.193Z,17.87
2018-09-06T15:45:53.317Z,17.86
2018-09-06T15:48:22.347Z,17.83
2018-09-06T15:50:51.406Z,17.80
2018-09-06T15:53:20.574Z,17.82
2018-09-06T15:55:50.030Z,17.84
2018-09-06T15:58:19.058Z,17.84
2018-09-06T16:03:41.420Z,17.81
2018-09-06T16:06:11.425Z,17.74
2018-09-06T16:08:40.581Z,17.65
2018-09-06T16:11:09.678Z,17.56
2018-09-06T16:13:39.169Z,17.50
2018-09-06T16:16:08.976Z,17.45
2018-09-06T16:18:38.240Z,17.42
2018-09-06T16:21:10.949Z,17.42
2018-09-06T16:23:42.206Z,17.42
2018-09-06T16:26:12.317Z,17.40
2018-09-06T16:28:41.390Z,17.35
2018-09-06T16:31:10.396Z,17.40
2018-09-06T16:33:39.518Z,17.36
2018-09-06T16:36:08.771Z,17.35
2018-09-06T16:38:37.867Z,17.33
2018-09-06T16:41:07.141Z,17.31
2018-09-06T16:43:36.259Z,17.27
2018-09-06T16:46:05.281Z,17.24
2018-09-06T16:48:34.431Z,17.21
2018-09-06T16:51:03.735Z,17.20
2018-09-06T16:53:32.797Z,17.22
2018-09-06T16:56:01.879Z,17.24
2018-09-06T16:58:30.872Z,17.27
2018-09-06T17:01:00.029Z,17.25
2018-09-06T17:03:29.018Z,17.24
2018-09-06T17:05:58.031Z,17.16
2018-09-06T17:08:27.200Z,17.08
2018-09-06T17:10:56.300Z,17.00
2018-09-06T17:13:25.367Z,16.97
2018-09-06T17:15:54.394Z,16.96
2018-09-06T17:18:28.760Z,16.96
2018-09-06T17:20:57.899Z,16.98
2018-09-06T17:23:26.965Z,17.00
2018-09-06T17:25:55.972Z,17.03
2018-09-06T17:28:25.024Z,17.07
2018-09-06T17:30:54.122Z,17.11
2018-09-06T17:33:23.339Z,17.14
2018-09-06T17:35:52.356Z,17.16
2018-09-06T17:38:21.388Z,17.15
2018-09-06T17:40:50.442Z,17.11
2018-09-06T17:43:19.473Z,17.09
2018-09-06T17:45:48.596Z,17.07
2018-09-06T17:48:18.081Z,17.01
2018-09-06T17:50:47.120Z,16.92
2018-09-06T17:53:16.298Z,16.85
2018-09-06T17:55:45.385Z,16.78
2018-09-06T17:58:14.382Z,16.76
2018-09-06T18:00:46.776Z,16.73
2018-09-06T18:03:16.582Z,16.69
2018-09-06T18:05:45.635Z,16.68
2018-09-06T18:08:27.857Z,16.65
2018-09-06T18:13:53.190Z,16.59
2018-09-06T18:16:23.260Z,16.53
2018-09-06T18:18:53.913Z,16.53
2018-09-06T18:21:23.418Z,16.54
2018-09-06T18:24:00.822Z,16.53
2018-09-06T18:26:33.204Z,16.52
2018-09-06T18:29:10.883Z,16.51
2018-09-06T18:31:40.843Z,16.52
2018-09-06T18:34:09.910Z,16.50
2018-09-06T18:36:39.508Z,16.47
2018-09-06T18:39:09.160Z,16.49
2018-09-06T18:41:38.739Z,16.48
2018-09-06T18:44:07.994Z,16.46
2018-09-06T18:46:37.149Z,16.45
2018-09-06T18:49:06.233Z,16.44
2018-09-06T18:51:35.405Z,16.43
2018-09-06T18:54:05.128Z,16.43
2018-09-06T18:56:34.150Z,16.40
2018-09-06T18:59:03.327Z,16.38
2018-09-06T19:01:32.337Z,16.34
2018-09-06T19:04:01.517Z,16.32
2018-09-06T19:06:30.622Z,16.32
2018-09-06T19:08:59.675Z,16.29
2018-09-06T19:11:29.711Z,16.26
2018-09-06T19:13:58.927Z,16.24
2018-09-06T19:16:28.001Z,16.20
2018-09-06T19:18:57.011Z,16.18
2018-09-06T19:21:26.104Z,16.17
2018-09-06T19:23:55.300Z,16.17
2018-09-06T19:26:24.295Z,16.15
2018-09-06T19:28:53.349Z,16.12
2018-09-06T19:31:22.761Z,16.09
2018-09-06T19:33:52.856Z,16.07
2018-09-06T19:36:22.073Z,16.03
2018-09-06T19:38:51.182Z,16.01
2018-09-06T19:41:20.804Z,15.96
2018-09-06T19:43:49.872Z,15.93
2018-09-06T19:46:19.148Z,15.89
2018-09-06T19:48:48.293Z,15.88
2018-09-06T19:51:17.392Z,15.85
2018-09-06T19:53:46.393Z,15.83
2018-09-06T19:56:15.445Z,15.78
2018-09-06T19:58:44.634Z,15.77
2018-09-06T20:04:08.576Z,15.76
2018-09-06T20:06:44.449Z,15.68
2018-09-06T20:09:13.515Z,15.70
2018-09-06T20:11:42.612Z,15.68
2018-09-06T20:14:11.691Z,15.64
2018-09-06T20:16:40.818Z,15.62
2018-09-06T20:19:09.939Z,15.60
2018-09-06T20:21:39.026Z,15.59
2018-09-06T20:24:08.116Z,15.54
2018-09-06T20:26:37.206Z,15.54
2018-09-06T20:29:06.309Z,15.55
2018-09-06T20:31:35.365Z,15.53
2018-09-06T20:34:04.946Z,15.51
2018-09-06T20:36:34.039Z,15.45
2018-09-06T20:39:03.184Z,15.48
2018-09-06T20:41:32.234Z,15.48
2018-09-06T20:44:01.268Z,15.47
2018-09-06T20:46:30.356Z,15.47
2018-09-06T20:49:00.221Z,15.44
2018-09-06T20:51:29.537Z,15.46
2018-09-06T20:53:58.843Z,15.44
2018-09-06T20:56:27.937Z,15.41
2018-09-06T20:58:56.977Z,15.39
2018-09-06T21:01:26.295Z,15.37
2018-09-06T21:03:56.034Z,15.36
2018-09-06T21:06:25.211Z,15.37
2018-09-06T21:08:54.649Z,15.39
2018-09-06T21:11:23.772Z,15.40
2018-09-06T21:13:53.243Z,15.40
2018-09-06T21:16:23.502Z,15.40
2018-09-06T21:18:54.558Z,15.40
2018-09-06T21:21:23.672Z,15.41
2018-09-06T21:23:53.204Z,15.41
2018-09-06T21:26:22.361Z,15.41
2018-09-06T21:28:51.428Z,15.41
2018-09-06T21:31:20.538Z,15.41
2018-09-06T21:33:49.948Z,15.40
2018-09-06T21:36:19.110Z,15.37
2018-09-06T21:38:48.148Z,15.36
2018-09-06T21:41:17.163Z,15.32
2018-09-06T21:43:46.892Z,15.28
2018-09-06T21:46:16.128Z,15.23
2018-09-06T21:48:45.169Z,15.18
2018-09-06T21:51:14.163Z,15.14
2018-09-06T21:53:43.199Z,15.10
2018-09-06T21:56:12.243Z,15.03
2018-09-06T21:58:41.521Z,14.99
2018-09-06T22:01:11.041Z,14.96
2018-09-06T22:03:45.850Z,14.93
2018-09-06T22:06:15.939Z,14.89
2018-09-06T22:08:45.090Z,14.84
2018-09-06T22:11:14.181Z,14.81
2018-09-06T22:13:43.176Z,14.78
2018-09-06T22:16:12.213Z,14.75
2018-09-06T22:18:59.050Z,14.74
2018-09-06T22:21:28.317Z,14.72
2018-09-06T22:24:03.869Z,14.71
2018-09-06T22:26:37.433Z,14.68
2018-09-06T22:29:23.434Z,14.64
2018-09-06T22:32:07.802Z,14.53
2018-09-06T22:34:53.873Z,14.45
2018-09-06T22:37:23.272Z,14.36
2018-09-06T22:40:04.550Z,14.20
2018-09-06T22:42:52.984Z,14.00
2018-09-06T22:45:36.166Z,13.85
2018-09-06T22:48:08.445Z,13.62
2018-09-06T22:50:52.175Z,13.43
2018-09-06T22:53:36.810Z,13.36
2018-09-06T22:56:23.879Z,13.38
2018-09-06T22:59:09.192Z,13.28
2018-09-06T23:01:38.610Z,13.13
2018-09-06T23:04:09.188Z,12.99
2018-09-06T23:06:43.171Z,12.85
2018-09-06T23:09:30.424Z,12.74
2018-09-06T23:11:59.450Z,12.63
2018-09-06T23:14:28.726Z,12.52
2018-09-06T23:16:58.167Z,12.43
2018-09-06T23:19:27.190Z,12.34
2018-09-06T23:21:56.225Z,12.25
2018-09-06T23:24:25.254Z,12.15
2018-09-06T23:26:54.403Z,12.06
2018-09-06T23:29:23.996Z,12.01
2018-09-06T23:31:53.088Z,11.99
2018-09-06T23:34:22.114Z,11.99
2018-09-06T23:36:52.050Z,11.94
2018-09-06T23:39:23.139Z,11.89
2018-09-06T23:41:52.829Z,11.87
2018-09-06T23:44:22.003Z,11.80
2018-09-06T23:46:51.407Z,11.75
2018-09-06T23:49:20.465Z,11.66
2018-09-06T23:51:49.995Z,11.57
2018-09-06T23:54:19.147Z,11.50
2018-09-06T23:56:48.212Z,11.50
2018-09-06T23:59:17.822Z,11.53
